Time;durP1;ratioP1;P1;durP2;ratioP2;P2;SDS_P1;SDS_P2;PMS_P1;PMS_P2;Temp;Humidity;BMP_temperature;BMP_pressure;BME280_temperature;BME280_humidity;BME280_pressure;Samples;Min_cycle;Max_cycle;Signal;HPM_P1;HPM_P2
2023/07/28 00:01:02;;;;;;;2.25;1.60;;;;;;;14.53;66.58;63502.28;5082671;28;20268;-78
2023/07/28 00:03:29;;;;;;;2.30;2.10;;;;;;;14.49;67.31;63495.06;5086369;28;20394;-78
2023/07/28 00:05:56;;;;;;;2.25;1.88;;;;;;;14.55;66.97;63496.16;5089824;28;20196;-79
2023/07/28 00:08:23;;;;;;;1.67;1.67;;;;;;;14.51;66.56;63497.16;5089984;28;20283;-78
2023/07/28 00:10:50;;;;;;;1.63;1.52;;;;;;;14.47;66.41;63493.50;5090136;28;20200;-82
2023/07/28 00:13:17;;;;;;;1.73;1.73;;;;;;;14.39;66.39;63485.19;5090194;28;20287;-79
2023/07/28 00:15:44;;;;;;;1.90;1.80;;;;;;;14.35;66.01;63481.03;5092334;28;20208;-79
2023/07/28 00:18:12;;;;;;;2.00;1.90;;;;;;;14.34;66.51;63479.50;5087189;28;20216;-78
2023/07/28 00:20:40;;;;;;;2.45;1.73;;;;;;;14.30;66.45;63473.28;5089251;28;20232;-82
2023/07/28 00:23:06;;;;;;;2.08;1.92;;;;;;;14.26;67.58;63466.03;5088633;28;20216;-79
2023/07/28 00:25:33;;;;;;;1.98;1.88;;;;;;;14.19;67.37;63466.97;5091917;28;20197;-78
2023/07/28 00:28:01;;;;;;;1.70;1.60;;;;;;;14.11;68.17;63455.59;5084820;28;20239;-79
2023/07/28 00:30:28;;;;;;;5.05;1.98;;;;;;;14.09;68.02;63454.03;5085518;28;20372;-79
2023/07/28 00:32:55;;;;;;;1.58;1.58;;;;;;;14.11;67.92;63456.09;5090205;28;20220;-79
2023/07/28 00:35:23;;;;;;;2.00;1.77;;;;;;;14.09;66.84;63453.50;5087773;28;20196;-79
2023/07/28 00:37:50;;;;;;;1.98;1.88;;;;;;;14.02;67.79;63446.22;5086821;28;20228;-79
2023/07/28 00:40:17;;;;;;;1.88;1.77;;;;;;;13.91;67.63;63430.75;5089177;28;20260;-79
2023/07/28 00:42:44;;;;;;;2.15;2.05;;;;;;;13.93;67.68;63435.38;5092262;28;20311;-79
2023/07/28 00:45:12;;;;;;;1.73;1.63;;;;;;;13.87;67.80;63428.63;5080310;28;20501;-80
2023/07/28 00:47:39;;;;;;;2.45;2.10;;;;;;;13.91;67.74;63432.78;5089408;28;20197;-80
2023/07/28 00:50:08;;;;;;;1.70;1.70;;;;;;;13.75;67.77;63416.19;5087594;28;20208;-80
2023/07/28 00:52:36;;;;;;;1.73;1.73;;;;;;;13.89;67.81;63430.72;5087800;28;20200;-80
2023/07/28 00:55:04;;;;;;;2.08;1.90;;;;;;;13.82;68.06;63426.50;5087885;28;20234;-79
2023/07/28 00:57:30;;;;;;;2.08;2.05;;;;;;;13.76;68.72;63417.72;5093288;28;20201;-78
2023/07/28 00:59:58;;;;;;;2.00;1.90;;;;;;;13.78;67.95;63424.41;5086192;28;20239;-79
2023/07/28 01:02:25;;;;;;;1.95;1.88;;;;;;;13.78;68.88;63421.84;5086918;28;20516;-79
2023/07/28 01:04:52;;;;;;;1.92;1.83;;;;;;;13.73;69.30;63412.06;5085351;28;20232;-80
2023/07/28 01:07:31;;;;;;;2.10;2.00;;;;;;;13.74;69.93;63415.66;5087375;28;20203;-77
2023/07/28 01:10:08;;;;;;;2.10;2.00;;;;;;;13.66;69.42;63409.38;5087643;28;20200;-78
2023/07/28 01:12:36;;;;;;;4.55;2.08;;;;;;;13.69;70.49;63409.94;5087994;28;20196;-77
2023/07/28 01:15:04;;;;;;;2.00;2.00;;;;;;;13.63;71.88;63406.28;5090002;28;20196;-79
2023/07/28 01:17:31;;;;;;;3.45;2.00;;;;;;;13.58;71.83;63401.59;5087260;28;20196;-78
2023/07/28 01:19:59;;;;;;;1.75;1.75;;;;;;;13.51;71.57;63396.38;5082396;28;20251;-79
2023/07/28 01:22:46;;;;;;;1.90;1.90;;;;;;;13.51;71.75;63399.44;5086427;28;20299;-80
2023/07/28 01:25:24;;;;;;;3.50;2.22;;;;;;;13.43;72.25;63385.50;5088128;28;20216;-77
2023/07/28 01:27:54;;;;;;;2.42;2.22;;;;;;;13.42;72.08;63392.69;5085751;28;20216;-79
2023/07/28 01:30:21;;;;;;;1.60;1.60;;;;;;;13.40;72.18;63380.38;5085970;28;20200;-78
2023/07/28 01:32:48;;;;;;;2.13;2.03;;;;;;;13.37;73.78;63379.31;5090146;28;20228;-78
2023/07/28 01:35:15;;;;;;;2.20;2.10;;;;;;;13.30;75.28;63372.03;5085636;28;20203;-78
2023/07/28 01:37:42;;;;;;;2.55;2.45;;;;;;;13.29;72.63;63374.06;5085878;28;20243;-78
2023/07/28 01:40:10;;;;;;;2.15;2.05;;;;;;;13.23;73.08;63364.78;5084537;28;20235;-78
2023/07/28 01:42:37;;;;;;;2.10;2.00;;;;;;;13.20;73.51;63359.63;5077439;28;20224;-77
2023/07/28 01:45:07;;;;;;;1.67;1.67;;;;;;;13.20;73.14;63356.56;5086880;28;20222;-78
2023/07/28 01:47:35;;;;;;;2.17;2.08;;;;;;;13.21;73.39;63360.66;5089161;28;20279;-78
2023/07/28 01:50:02;;;;;;;3.17;2.97;;;;;;;13.11;76.53;63350.28;5087995;28;20197;-78
2023/07/28 01:52:29;;;;;;;4.65;2.38;;;;;;;13.14;76.69;63353.41;5082544;28;20497;-78
2023/07/28 01:54:56;;;;;;;3.28;2.42;;;;;;;13.07;76.34;63350.72;5070898;28;20209;-77
2023/07/28 01:57:27;;;;;;;2.30;2.20;;;;;;;13.09;76.14;63348.22;5071352;28;20392;-79
2023/07/28 01:59:54;;;;;;;2.80;2.60;;;;;;;13.05;76.04;63343.53;5069769;28;20545;-79
2023/07/28 02:02:23;;;;;;;1.90;1.80;;;;;;;13.08;76.24;63346.66;5080580;28;20196;-77
2023/07/28 02:04:50;;;;;;;2.03;1.92;;;;;;;13.11;76.20;63349.75;5088581;28;20220;-78
2023/07/28 02:07:17;;;;;;;2.78;2.25;;;;;;;13.04;76.04;63345.59;5088808;28;20209;-78
2023/07/28 02:09:45;;;;;;;2.25;1.95;;;;;;;12.85;74.08;63325.84;5085432;28;20296;-78
2023/07/28 02:12:11;;;;;;;2.38;2.03;;;;;;;12.85;73.83;63322.78;5090489;28;20218;-80
2023/07/28 02:14:38;;;;;;;5.40;2.20;;;;;;;12.79;73.43;63314.50;5087599;28;20216;-78
2023/07/28 02:17:06;;;;;;;2.22;2.13;;;;;;;12.59;73.46;63293.78;5083619;28;20200;-78
2023/07/28 02:19:34;;;;;;;2.80;2.42;;;;;;;12.81;74.36;63324.25;5085778;28;20285;-78
2023/07/28 02:22:02;;;;;;;2.28;2.17;;;;;;;12.80;75.54;63323.72;5087163;28;20188;-77
2023/07/28 02:24:29;;;;;;;2.63;2.42;;;;;;;12.76;76.61;63313.97;5087509;28;20223;-77
2023/07/28 02:26:55;;;;;;;2.67;2.58;;;;;;;12.68;77.51;63311.28;5083744;28;20204;-78
2023/07/28 02:29:23;;;;;;;2.90;2.70;;;;;;;12.73;76.25;63313.91;5086094;28;20270;-78
2023/07/28 02:31:50;;;;;;;2.47;2.38;;;;;;;12.77;76.06;63315.00;5086104;28;20204;-77
2023/07/28 02:34:17;;;;;;;2.50;2.40;;;;;;;12.73;76.87;63310.84;5084356;28;20246;-77
2023/07/28 02:36:45;;;;;;;2.40;2.25;;;;;;;12.70;77.99;63307.75;5084803;28;20204;-77
2023/07/28 02:39:12;;;;;;;2.40;2.30;;;;;;;12.64;79.12;63301.53;5089869;28;20216;-78
2023/07/28 02:41:39;;;;;;;2.70;2.60;;;;;;;12.61;79.75;63301.47;5086430;28;20185;-78
2023/07/28 02:44:07;;;;;;;2.40;2.20;;;;;;;12.63;79.86;63300.50;5083730;28;20216;-78
2023/07/28 02:46:36;;;;;;;2.63;2.47;;;;;;;12.57;79.36;63292.22;5084419;28;20214;-78
2023/07/28 02:49:04;;;;;;;2.60;2.50;;;;;;;12.66;79.63;63306.16;5086283;28;20223;-79
2023/07/28 02:51:30;;;;;;;3.60;2.42;;;;;;;12.70;80.71;63310.31;5084844;28;20266;-78
2023/07/28 02:53:59;;;;;;;2.53;2.42;;;;;;;12.70;82.19;63308.25;5083809;28;20224;-78
2023/07/28 02:56:26;;;;;;;2.90;2.70;;;;;;;12.61;82.98;63296.38;5090304;28;20230;-77
2023/07/28 02:58:53;;;;;;;2.67;2.45;;;;;;;12.54;83.98;63286.03;5085187;28;20228;-77
2023/07/28 03:01:20;;;;;;;2.67;2.58;;;;;;;12.54;83.47;63286.56;5082987;28;20409;-77
2023/07/28 03:03:48;;;;;;;2.80;2.60;;;;;;;12.54;83.93;63293.72;5086119;28;20236;-78
2023/07/28 03:06:15;;;;;;;2.78;2.58;;;;;;;12.50;84.71;63292.63;5069635;28;20470;-78
2023/07/28 03:08:42;;;;;;;2.33;2.22;;;;;;;12.52;85.01;63286.53;5077920;28;20291;-77
2023/07/28 03:11:11;;;;;;;3.13;2.72;;;;;;;12.44;85.56;63283.84;5083022;28;20196;-79
2023/07/28 03:13:38;;;;;;;3.45;3.25;;;;;;;12.44;85.66;63283.84;5086793;28;20216;-79
2023/07/28 03:16:06;;;;;;;2.90;2.80;;;;;;;12.44;86.24;63280.78;5082554;28;20204;-78
2023/07/28 03:18:32;;;;;;;2.90;2.80;;;;;;;12.41;86.53;63280.22;5083770;28;20244;-77
2023/07/28 03:20:59;;;;;;;3.17;2.97;;;;;;;12.45;86.78;63284.91;5066084;28;20233;-78
2023/07/28 03:23:26;;;;;;;3.63;3.42;;;;;;;12.44;87.28;63285.91;5066400;28;20224;-79
2023/07/28 03:25:53;;;;;;;3.20;3.00;;;;;;;12.41;88.51;63277.66;5066726;28;20234;-79
2023/07/28 03:28:22;;;;;;;3.20;3.10;;;;;;;12.43;88.83;63282.28;5070052;28;20236;-78
2023/07/28 03:30:49;;;;;;;3.00;2.80;;;;;;;12.43;88.96;63282.28;5092936;28;20220;-78
2023/07/28 03:33:16;;;;;;;2.85;2.63;;;;;;;12.47;87.97;63283.91;5085977;28;20216;-78
2023/07/28 03:35:43;;;;;;;3.42;3.22;;;;;;;12.51;88.27;63288.06;5086216;28;20197;-78
2023/07/28 03:38:10;;;;;;;2.97;2.70;;;;;;;12.56;88.61;63293.72;5085772;28;20287;-78
2023/07/28 03:40:38;;;;;;;3.25;3.05;;;;;;;12.59;88.09;63298.88;5087174;28;20295;-78
2023/07/28 03:43:05;;;;;;;3.55;3.28;;;;;;;12.64;87.73;63302.03;5089737;28;20261;-77
2023/07/28 03:45:33;;;;;;;3.80;3.33;;;;;;;12.72;87.27;63307.78;5089334;28;20192;-78
2023/07/28 03:48:00;;;;;;;3.85;3.58;;;;;;;12.81;88.00;63316.59;5084673;28;20219;-78
2023/07/28 03:50:27;;;;;;;3.05;2.83;;;;;;;12.87;88.90;63327.41;5091751;28;20196;-77
2023/07/28 03:52:55;;;;;;;3.60;3.50;;;;;;;12.96;89.77;63334.69;5087544;28;20578;-77
2023/07/28 03:55:22;;;;;;;3.80;3.65;;;;;;;13.05;90.30;63346.63;5089130;28;20201;-78
2023/07/28 03:57:49;;;;;;;6.60;3.50;;;;;;;13.12;91.12;63348.75;5078526;28;20225;-79
2023/07/28 04:00:16;;;;;;;2.97;2.88;;;;;;;13.17;91.05;63355.97;5078522;28;20236;-78
2023/07/28 04:02:44;;;;;;;4.32;4.03;;;;;;;13.27;90.56;63366.88;5086701;28;20484;-78
2023/07/28 04:05:11;;;;;;;4.68;3.92;;;;;;;13.37;90.45;63376.75;5089501;28;20201;-79
2023/07/28 04:07:38;;;;;;;3.90;3.47;;;;;;;13.41;90.71;63381.41;5091009;28;20272;-78
2023/07/28 04:10:06;;;;;;;5.25;4.50;;;;;;;13.49;90.51;63394.31;5088523;28;20246;-79
2023/07/28 04:12:33;;;;;;;5.13;4.72;;;;;;;13.47;90.24;63389.66;5082842;28;20201;-79
2023/07/28 04:15:00;;;;;;;5.13;4.63;;;;;;;13.63;89.48;63403.72;5086883;28;20219;-78
2023/07/28 04:17:29;;;;;;;4.53;4.32;;;;;;;13.75;89.37;63411.06;5088422;28;20224;-78
2023/07/28 04:19:57;;;;;;;4.47;4.07;;;;;;;13.88;88.72;63429.66;5088396;28;20200;-78
2023/07/28 04:22:24;;;;;;;4.72;4.53;;;;;;;13.88;87.79;63424.53;5080583;28;20207;-79
2023/07/28 04:24:51;;;;;;;4.45;4.25;;;;;;;14.06;86.88;63450.91;5090229;28;20247;-77
2023/07/28 04:27:19;;;;;;;4.85;4.40;;;;;;;14.21;87.38;63466.50;5083610;28;20219;-79
2023/07/28 04:29:46;;;;;;;4.43;4.20;;;;;;;14.35;85.18;63481.03;5088351;28;20251;-79
2023/07/28 04:32:13;;;;;;;4.57;4.38;;;;;;;14.52;83.75;63501.25;5085637;28;20208;-79
2023/07/28 04:34:40;;;;;;;4.40;4.10;;;;;;;14.61;83.54;63507.53;5088932;28;20235;-78
2023/07/28 04:37:08;;;;;;;6.63;4.25;;;;;;;14.64;82.88;63515.75;5088350;28;20219;-79
2023/07/28 04:39:35;;;;;;;4.53;4.13;;;;;;;14.77;82.86;63519.03;5088646;28;20273;-78
2023/07/28 04:42:03;;;;;;;4.80;4.40;;;;;;;14.71;83.90;63513.31;5089542;28;20228;-78
2023/07/28 04:44:30;;;;;;;5.38;5.07;;;;;;;14.62;83.41;63503.44;5089925;28;20270;-77
2023/07/28 04:46:56;;;;;;;5.22;4.82;;;;;;;14.62;83.07;63506.53;5082384;28;20403;-78
2023/07/28 04:49:23;;;;;;;7.68;4.72;;;;;;;14.68;82.00;63512.25;5087336;28;20246;-78
2023/07/28 04:51:51;;;;;;;5.32;4.40;;;;;;;14.88;80.60;63535.56;5086835;28;20200;-78
2023/07/28 04:54:19;;;;;;;5.40;5.10;;;;;;;14.98;80.39;63545.97;5088204;28;20224;-77
2023/07/28 04:56:47;;;;;;;5.03;4.63;;;;;;;15.11;80.68;63558.94;5085789;28;20219;-78
2023/07/28 04:59:14;;;;;;;4.78;4.43;;;;;;;14.96;79.12;63541.34;5087695;28;20238;-78
2023/07/28 05:01:41;;;;;;;5.50;4.78;;;;;;;14.94;79.98;63542.31;5084932;28;20246;-78
2023/07/28 05:04:08;;;;;;;5.05;4.70;;;;;;;15.00;78.07;63553.69;5088273;28;20235;-79
2023/07/28 05:06:35;;;;;;;4.82;4.43;;;;;;;15.04;79.66;63550.16;5088360;28;20199;-77
2023/07/28 05:09:03;;;;;;;5.30;4.90;;;;;;;14.98;78.59;63543.41;5087018;28;20216;-77
2023/07/28 05:11:32;;;;;;;6.18;5.25;;;;;;;14.87;79.63;63535.06;5081934;28;20512;-79
2023/07/28 05:13:59;;;;;;;6.72;4.72;;;;;;;15.09;79.59;63552.25;5080326;28;20220;-77
2023/07/28 05:16:26;;;;;;;4.63;4.32;;;;;;;15.14;77.91;63560.03;5091075;28;20204;-78
2023/07/28 05:18:53;;;;;;;5.03;4.18;;;;;;;15.25;77.17;63574.03;5083742;28;20221;-77
2023/07/28 05:21:20;;;;;;;4.63;4.43;;;;;;;15.34;77.56;63583.38;5077600;28;20254;-77
2023/07/28 05:23:47;;;;;;;4.95;4.40;;;;;;;15.29;77.11;63577.66;5087006;28;20216;-77
2023/07/28 05:26:14;;;;;;;5.45;4.50;;;;;;;15.31;77.98;63582.28;5085373;28;20449;-78
2023/07/28 05:28:43;;;;;;;5.30;4.90;;;;;;;15.41;77.41;63588.09;5089481;28;20275;-78
2023/07/28 05:31:10;;;;;;;4.75;4.25;;;;;;;15.46;77.00;63597.91;5088777;28;20196;-77
2023/07/28 05:33:40;;;;;;;5.32;4.88;;;;;;;15.68;76.47;63618.75;5087152;28;20528;-77
2023/07/28 05:36:07;;;;;;;7.65;4.70;;;;;;;15.74;74.26;63624.97;5085089;28;20422;-77
2023/07/28 05:38:34;;;;;;;7.13;4.80;;;;;;;15.89;74.52;63640.56;5088483;28;20410;-80
2023/07/28 05:41:03;;;;;;;5.57;4.47;;;;;;;16.02;73.97;63654.09;5085756;28;20277;-78
2023/07/28 05:43:30;;;;;;;4.80;4.47;;;;;;;16.27;70.80;63676.47;5086039;28;20220;-78
2023/07/28 05:46:00;;;;;;;6.28;3.97;;;;;;;16.46;71.73;63698.81;5085910;28;20200;-78
2023/07/28 05:48:27;;;;;;;4.00;3.70;;;;;;;16.59;68.73;63710.31;5068743;28;20299;-77
2023/07/28 05:50:54;;;;;;;5.70;4.55;;;;;;;16.50;68.65;63703.00;5066930;28;20220;-78
2023/07/28 05:53:22;;;;;;;5.97;4.45;;;;;;;16.69;67.89;63720.72;5071981;28;20554;-79
2023/07/28 05:55:49;;;;;;;4.07;3.78;;;;;;;16.84;67.26;63733.22;5069952;28;20205;-78
2023/07/28 05:58:17;;;;;;;5.05;4.68;;;;;;;16.74;65.09;63731.06;5087506;28;20243;-80
2023/07/28 06:00:44;;;;;;;5.43;3.85;;;;;;;16.92;64.93;63744.13;5088282;28;20243;-79
2023/07/28 06:03:12;;;;;;;5.07;4.55;;;;;;;17.16;64.08;63769.09;5081359;28;20224;-80
2023/07/28 06:05:41;;;;;;;3.78;3.50;;;;;;;17.39;63.61;63793.06;5073829;28;20192;-79
2023/07/28 06:08:08;;;;;;;4.43;3.55;;;;;;;17.46;60.93;63799.81;5085010;28;20241;-78
2023/07/28 06:10:36;;;;;;;3.50;3.25;;;;;;;17.43;62.68;63797.22;5087612;28;20196;-78
2023/07/28 06:13:03;;;;;;;3.53;3.33;;;;;;;17.65;61.46;63820.16;5087451;28;20228;-79
2023/07/28 06:15:30;;;;;;;3.58;3.15;;;;;;;17.85;60.93;63840.44;5084078;28;20204;-78
2023/07/28 06:18:05;;;;;;;6.15;3.03;;;;;;;17.94;58.93;63847.78;5074065;28;20224;-78
2023/07/28 06:20:34;;;;;;;3.50;2.97;;;;;;;17.96;59.83;63852.44;5089991;28;20222;-77
2023/07/28 06:23:02;;;;;;;3.95;2.53;;;;;;;17.92;60.74;63856.00;5073672;28;20219;-78
2023/07/28 06:25:28;;;;;;;4.22;3.00;;;;;;;18.00;59.26;63859.16;5080817;28;20192;-78
2023/07/28 06:27:56;;;;;;;3.40;3.10;;;;;;;17.96;59.20;63855.00;5084899;28;20261;-78
2023/07/28 06:30:23;;;;;;;3.03;2.83;;;;;;;17.89;61.01;63849.75;5084293;28;20196;-78
2023/07/28 06:32:50;;;;;;;3.80;3.30;;;;;;;18.03;61.35;63859.19;5086769;28;20212;-79
2023/07/28 06:35:17;;;;;;;4.32;3.92;;;;;;;18.30;60.42;63893.00;5084686;28;20229;-77
2023/07/28 06:37:45;;;;;;;3.33;3.13;;;;;;;18.49;59.18;63907.13;5087683;28;20223;-76
2023/07/28 06:40:12;;;;;;;3.47;3.28;;;;;;;18.54;58.21;63914.94;5082431;28;20246;-76
2023/07/28 06:42:39;;;;;;;4.35;3.17;;;;;;;18.40;58.99;63897.75;5084186;28;20273;-75
2023/07/28 06:45:07;;;;;;;4.75;3.75;;;;;;;18.43;60.55;63901.41;5083790;28;20200;-76
2023/07/28 06:47:34;;;;;;;7.55;4.38;;;;;;;18.52;60.52;63912.84;5082513;28;20196;-74
2023/07/28 06:50:01;;;;;;;4.70;4.25;;;;;;;18.72;60.51;63933.69;5068479;28;20192;-75
2023/07/28 06:52:28;;;;;;;9.80;4.07;;;;;;;18.62;60.62;63925.84;5086364;28;20212;-75
2023/07/28 06:54:56;;;;;;;4.30;4.00;;;;;;;18.52;61.17;63909.75;5080816;28;20502;-76
2023/07/28 06:57:26;;;;;;;4.28;3.97;;;;;;;18.48;61.98;63905.56;5078603;28;20648;-76
2023/07/28 06:59:53;;;;;;;3.58;3.30;;;;;;;18.68;61.04;63926.94;5084716;28;20258;-75
2023/07/28 07:02:20;;;;;;;3.78;3.47;;;;;;;18.79;58.36;63938.41;5080933;28;20242;-75
2023/07/28 07:04:47;;;;;;;4.68;3.50;;;;;;;18.93;58.27;63955.06;5075320;28;20331;-76
2023/07/28 07:07:14;;;;;;;3.58;3.35;;;;;;;18.97;57.37;63956.63;5077211;28;20241;-75
2023/07/28 07:09:41;;;;;;;3.63;3.42;;;;;;;19.06;57.30;63971.19;5090013;28;20207;-76
2023/07/28 07:12:10;;;;;;;3.30;3.10;;;;;;;19.08;56.63;63973.81;5088033;28;20204;-75
2023/07/28 07:14:37;;;;;;;3.38;3.13;;;;;;;19.14;57.19;63977.47;5079061;28;20242;-76
2023/07/28 07:17:05;;;;;;;5.65;3.95;;;;;;;19.07;55.67;63964.50;5088199;28;20227;-74
2023/07/28 07:19:32;;;;;;;3.72;3.50;;;;;;;19.02;56.51;63967.00;5086552;28;20220;-74
2023/07/28 07:21:59;;;;;;;3.85;3.53;;;;;;;19.08;55.27;63970.69;5083541;28;20239;-75
2023/07/28 07:24:26;;;;;;;4.90;2.90;;;;;;;19.21;56.05;63984.25;5078124;28;20224;-74
2023/07/28 07:26:53;;;;;;;3.28;3.08;;;;;;;19.27;55.04;63993.63;5082769;28;20387;-75
2023/07/28 07:29:21;;;;;;;3.40;3.20;;;;;;;19.33;54.69;63997.31;5088476;28;20295;-76
2023/07/28 07:31:48;;;;;;;3.03;2.78;;;;;;;19.44;54.72;64008.25;5078918;28;20200;-75
2023/07/28 07:34:16;;;;;;;2.90;2.70;;;;;;;19.55;53.16;64020.25;5087940;28;20249;-75
2023/07/28 07:36:43;;;;;;;3.20;2.95;;;;;;;19.37;54.60;63998.38;5087912;28;20204;-74
2023/07/28 07:39:10;;;;;;;4.00;3.50;;;;;;;19.54;55.00;64018.69;5086862;28;20218;-75
2023/07/28 07:41:36;;;;;;;3.83;3.33;;;;;;;19.74;52.86;64036.97;5083563;28;20295;-75
2023/07/28 07:44:04;;;;;;;6.57;3.50;;;;;;;19.74;54.92;64044.19;5087317;28;20480;-75
2023/07/28 07:46:33;;;;;;;3.70;3.50;;;;;;;20.02;53.08;64068.25;5087401;28;20268;-74
2023/07/28 07:49:00;;;;;;;3.72;3.38;;;;;;;20.10;52.27;64076.56;5085260;28;20333;-76
2023/07/28 07:51:28;;;;;;;4.65;3.55;;;;;;;20.22;52.72;64086.53;5074398;28;20200;-75
2023/07/28 07:53:55;;;;;;;3.10;2.90;;;;;;;20.43;52.92;64116.72;5081643;28;20411;-76
2023/07/28 07:56:22;;;;;;;3.88;3.50;;;;;;;20.74;51.73;64143.41;5078997;28;20211;-75
2023/07/28 07:58:50;;;;;;;3.80;3.17;;;;;;;20.71;50.30;64137.16;5079820;28;20415;-76
2023/07/28 08:01:17;;;;;;;3.92;3.63;;;;;;;20.66;49.61;64135.03;5075552;28;20295;-75
2023/07/28 08:03:45;;;;;;;6.05;3.22;;;;;;;20.60;49.98;64129.28;5078083;28;20214;-73
2023/07/28 08:06:12;;;;;;;3.70;3.45;;;;;;;20.54;50.10;64125.09;5080008;28;20200;-74
2023/07/28 08:08:40;;;;;;;3.88;3.17;;;;;;;20.42;51.09;64112.56;5078283;28;20234;-77
2023/07/28 08:11:07;;;;;;;4.00;3.15;;;;;;;20.53;51.26;64124.59;5077732;28;20204;-76
2023/07/28 08:13:34;;;;;;;3.13;2.92;;;;;;;20.59;50.37;64127.72;5075343;28;20252;-74
2023/07/28 08:16:01;;;;;;;3.53;3.22;;;;;;;20.77;51.29;64151.19;5078131;28;20489;-75
2023/07/28 08:18:28;;;;;;;5.85;3.42;;;;;;;21.01;49.25;64176.78;5078775;28;20216;-75
2023/07/28 08:20:56;;;;;;;3.25;3.00;;;;;;;21.18;49.04;64191.41;5077509;28;20330;-76
2023/07/28 08:23:23;;;;;;;6.10;2.67;;;;;;;21.34;49.33;64208.13;5075816;28;20991;-75
2023/07/28 08:25:50;;;;;;;3.72;3.53;;;;;;;21.61;49.06;64231.69;5082221;28;20205;-75
2023/07/28 08:28:17;;;;;;;3.15;2.85;;;;;;;21.85;48.52;64261.44;5081532;28;20296;-75
2023/07/28 08:30:44;;;;;;;3.83;3.60;;;;;;;21.87;47.65;64257.81;5077906;28;20243;-75
2023/07/28 08:33:11;;;;;;;3.33;3.13;;;;;;;21.96;49.02;64278.13;5076132;28;20220;-77
2023/07/28 08:35:39;;;;;;;3.63;3.13;;;;;;;22.05;48.02;64284.94;5079154;28;20197;-76
2023/07/28 08:38:08;;;;;;;3.55;2.78;;;;;;;22.21;48.73;64298.53;5076480;28;20220;-78
2023/07/28 08:40:36;;;;;;;3.20;3.00;;;;;;;22.24;46.65;64299.06;5072633;28;20548;-77
2023/07/28 08:43:03;;;;;;;3.40;3.10;;;;;;;22.31;46.36;64304.31;5079484;28;20238;-77
2023/07/28 08:45:31;;;;;;;3.00;2.55;;;;;;;22.15;45.73;64287.59;5079960;28;20200;-77
2023/07/28 08:47:58;;;;;;;3.55;3.10;;;;;;;22.07;45.89;64283.91;5079634;28;20216;-77
2023/07/28 08:50:26;;;;;;;3.00;2.80;;;;;;;22.09;48.70;64283.41;5078539;28;20242;-79
2023/07/28 08:52:54;;;;;;;3.30;3.20;;;;;;;22.10;46.98;64282.38;5084204;28;20227;-77
2023/07/28 08:55:22;;;;;;;3.03;2.83;;;;;;;22.26;46.35;64301.66;5085809;28;20260;-78
2023/07/28 08:57:50;;;;;;;3.38;3.08;;;;;;;22.36;45.78;64309.53;5085418;28;20395;-78
2023/07/28 09:00:17;;;;;;;3.25;2.67;;;;;;;22.41;45.27;64319.97;5087785;28;20192;-78
2023/07/28 09:02:45;;;;;;;2.75;2.65;;;;;;;22.48;44.13;64327.28;5068361;28;20406;-79
2023/07/28 09:05:19;;;;;;;2.65;2.55;;;;;;;22.66;44.24;64346.09;5069883;28;20492;-79
2023/07/28 09:07:46;;;;;;;3.15;2.75;;;;;;;22.75;46.15;64355.53;5087546;28;20266;-78
2023/07/28 09:10:14;;;;;;;3.00;2.80;;;;;;;22.77;44.79;64357.63;5080267;28;20201;-77
2023/07/28 09:12:50;;;;;;;6.57;2.88;;;;;;;22.80;45.00;64357.63;5074888;28;20388;-79
2023/07/28 09:15:17;;;;;;;4.22;3.13;;;;;;;22.94;44.15;64374.88;5081994;28;20196;-78
2023/07/28 09:17:45;;;;;;;3.35;3.15;;;;;;;22.97;44.12;64378.00;5068330;28;20366;-80
2023/07/28 09:20:14;;;;;;;3.58;3.03;;;;;;;;;;5080950;28;20204;-79
2023/07/28 09:22:41;;;;;;;3.60;3.40;;;;;;;;;;5086368;28;20234;-78
2023/07/28 09:25:13;;;;;;;2.60;2.50;;;;;;;23.08;41.77;64386.38;5088027;28;20223;-76
2023/07/28 09:27:40;;;;;;;2.78;2.67;;;;;;;23.15;42.31;64401.50;5086934;28;20243;-77
2023/07/28 09:30:09;;;;;;;2.90;2.70;;;;;;;23.14;42.42;64395.78;5067202;28;20213;-78
2023/07/28 09:32:37;;;;;;;3.22;2.55;;;;;;;23.07;44.23;64388.47;5078356;28;20202;-78
2023/07/28 09:35:09;;;;;;;3.00;2.55;;;;;;;23.26;44.43;64410.41;5068077;28;20201;-79
2023/07/28 09:37:40;;;;;;;2.60;2.40;;;;;;;23.48;43.90;64433.44;5068428;28;20199;-77
2023/07/28 09:40:11;;;;;;;4.65;2.28;;;;;;;23.74;42.56;64458.59;5069884;28;20235;-79
2023/07/28 09:42:38;;;;;;;3.33;3.13;;;;;;;23.90;40.68;64472.19;5072413;28;20227;-77
2023/07/28 09:45:06;;;;;;;2.50;2.33;;;;;;;23.80;40.55;64462.25;5088304;28;20196;-78
2023/07/28 09:47:36;;;;;;;3.30;3.00;;;;;;;23.62;40.84;64445.50;5085636;28;20193;-79
2023/07/28 09:50:05;;;;;;;3.08;2.85;;;;;;;23.79;39.97;64461.22;5078899;28;20209;-77
2023/07/28 09:52:35;;;;;;;3.08;2.78;;;;;;;23.85;40.60;64470.09;5067053;28;20250;-77
2023/07/28 09:55:08;;;;;;;6.30;3.13;;;;;;;23.93;40.62;64481.06;5070047;28;20216;-77
2023/07/28 09:57:40;;;;;;;3.10;2.78;;;;;;;23.89;40.62;64474.28;5074455;28;20196;-77
2023/07/28 10:00:10;;;;;;;3.75;2.15;;;;;;;24.02;40.73;64487.91;5088235;28;20203;-78
2023/07/28 10:02:41;;;;;;;2.72;2.53;;;;;;;24.19;41.15;64507.25;5087019;28;20228;-80
2023/07/28 10:05:10;;;;;;;2.50;2.40;;;;;;;24.40;40.46;64518.81;5084879;28;20200;-79
2023/07/28 10:07:39;;;;;;;2.28;2.17;;;;;;;24.55;40.48;64542.34;5089655;28;20218;-77
2023/07/28 10:10:09;;;;;;;3.10;2.80;;;;;;;24.76;39.25;64559.13;5087433;28;20207;-78
2023/07/28 10:12:43;;;;;;;2.60;2.50;;;;;;;24.82;39.02;64568.53;5086644;28;20196;-76
2023/07/28 10:15:16;;;;;;;2.80;2.60;;;;;;;24.78;38.22;64569.06;5085603;28;20203;-78
2023/07/28 10:17:48;;;;;;;2.83;2.63;;;;;;;24.76;38.21;64556.53;5086890;28;20242;-79
2023/07/28 10:20:32;;;;;;;3.05;2.72;;;;;;;24.66;38.25;64553.88;5086629;28;20389;-77
2023/07/28 10:23:07;;;;;;;4.45;2.58;;;;;;;24.59;37.87;64543.94;5081607;28;20448;-78
2023/07/28 10:25:36;;;;;;;3.97;2.58;;;;;;;24.83;38.55;64571.69;5079083;28;20202;-79
2023/07/28 10:28:05;;;;;;;4.00;2.80;;;;;;;25.00;38.32;64586.88;5085860;28;20242;-79
2023/07/28 10:30:38;;;;;;;3.17;2.92;;;;;;;25.18;37.73;64608.31;5088042;28;20230;-80
2023/07/28 10:33:09;;;;;;;3.45;2.53;;;;;;;25.34;38.81;64625.09;5085000;28;20232;-78
2023/07/28 10:35:36;;;;;;;5.75;3.15;;;;;;;25.44;37.18;64632.97;5081699;28;20289;-78
2023/07/28 10:38:31;;;;;;;3.08;2.88;;;;;;;25.53;37.74;64641.88;5079432;28;20215;-78
2023/07/28 10:41:10;;;;;;;4.53;2.90;;;;;;;25.65;38.18;64654.47;5075897;28;20215;-79
2023/07/28 10:43:39;;;;;;;2.22;2.13;;;;;;;25.77;37.31;64664.94;5074810;28;20228;-78
2023/07/28 10:46:07;;;;;;;2.75;2.55;;;;;;;25.67;36.21;64662.31;5071716;28;20256;-79
2023/07/28 10:48:37;;;;;;;2.92;2.72;;;;;;;25.52;36.36;64640.84;5078635;28;20222;-77
2023/07/28 10:51:04;;;;;;;4.15;2.60;;;;;;;25.14;36.18;64604.16;5078406;28;20207;-77
2023/07/28 10:53:33;;;;;;;2.63;2.53;;;;;;;25.28;37.06;64618.81;5080045;28;20223;-78
2023/07/28 10:56:03;;;;;;;3.97;2.85;;;;;;;25.62;35.84;64651.84;5077469;28;20200;-78
2023/07/28 10:58:30;;;;;;;7.32;2.78;;;;;;;25.74;36.59;64672.25;5077114;28;20223;-79
2023/07/28 11:00:57;;;;;;;4.35;2.60;;;;;;;25.86;36.93;64679.09;5082119;28;20567;-78
2023/07/28 11:03:24;;;;;;;2.95;2.75;;;;;;;26.15;35.09;64709.50;5071747;28;20420;-79
2023/07/28 11:05:56;;;;;;;2.75;2.63;;;;;;;26.30;34.88;64722.59;5078791;28;20196;-78
2023/07/28 11:08:23;;;;;;;3.97;2.97;;;;;;;26.58;37.59;64751.44;5078038;28;20227;-77
2023/07/28 11:10:51;;;;;;;4.20;2.72;;;;;;;26.59;35.22;64755.09;5079649;28;20193;-75
2023/07/28 11:13:18;;;;;;;5.65;2.60;;;;;;;26.34;35.81;64728.88;5079302;28;20216;-78
2023/07/28 11:15:45;;;;;;;3.63;2.95;;;;;;;26.34;36.30;64729.41;5082331;28;20188;-76
2023/07/28 11:18:12;;;;;;;3.85;3.17;;;;;;;26.45;36.42;64740.97;5070216;28;20540;-77
2023/07/28 11:20:38;;;;;;;2.88;2.78;;;;;;;26.62;36.01;64758.25;5081070;28;20208;-79
2023/07/28 11:23:08;;;;;;;3.50;2.88;;;;;;;26.53;35.44;64751.41;5076377;28;20239;-78
2023/07/28 11:25:37;;;;;;;4.45;2.85;;;;;;;26.65;35.36;64764.00;5074499;28;20192;-78
2023/07/28 11:28:05;;;;;;;2.85;2.67;;;;;;;26.57;34.48;64753.53;5077579;28;20224;-77
2023/07/28 11:30:33;;;;;;;2.97;2.60;;;;;;;26.69;35.71;64763.00;5072696;28;20197;-79
2023/07/28 11:33:00;;;;;;;2.55;2.38;;;;;;;26.83;34.30;64780.31;5070406;28;20262;-79
2023/07/28 11:35:28;;;;;;;3.00;2.80;;;;;;;26.96;34.88;64791.84;5073434;28;20259;-77
2023/07/28 11:37:57;;;;;;;2.90;2.70;;;;;;;26.96;35.15;64796.53;5076389;28;20217;-77